Terminal Aerodrome Forecast
Issued by NWS Jackson, MS

Home | Current Version | Previous Version | Text Only | Print | Product List | Glossary On
Versions: 1 2 3 4 5 6 7 8 9 10 11 12 13 14 15 16 17
000
FTUS44 KJAN 271154
TAFJAN
TAF
KJAN 271154Z 2712/2812 16006KT P6SM VCSH FEW015 SCT110
     FM271300 16009KT P6SM OVC015
     FM271500 16009KT P6SM BKN025
     FM271700 15012G20KT P6SM BKN035
     FM280100 16004KT P6SM OVC100=

USA.gov is the U.S. government's official web portal to all federal, state and local government web resources and services.